sensor_id;sensor_type;location;lat;lon;timestamp;P1;durP1;ratioP1;P2;durP2;ratioP2
17361;SDS011;8798;51.938;4.348;2023-04-24T00:02:26;1.93;;;0.73;;
17361;SDS011;8798;51.938;4.348;2023-04-24T00:04:54;0.87;;;0.60;;
17361;SDS011;8798;51.938;4.348;2023-04-24T00:07:22;1.87;;;0.80;;
17361;SDS011;8798;51.938;4.348;2023-04-24T00:09:50;1.87;;;0.67;;
17361;SDS011;8798;51.938;4.348;2023-04-24T00:12:18;0.50;;;0.50;;
17361;SDS011;8798;51.938;4.348;2023-04-24T00:14:46;2.03;;;0.83;;
17361;SDS011;8798;51.938;4.348;2023-04-24T00:17:14;1.17;;;0.80;;
17361;SDS011;8798;51.938;4.348;2023-04-24T00:19:43;1.30;;;0.60;;
17361;SDS011;8798;51.938;4.348;2023-04-24T00:22:10;0.93;;;0.70;;
17361;SDS011;8798;51.938;4.348;2023-04-24T00:24:39;0.77;;;0.50;;
17361;SDS011;8798;51.938;4.348;2023-04-24T00:27:07;1.30;;;0.70;;
17361;SDS011;8798;51.938;4.348;2023-04-24T00:29:35;0.60;;;0.53;;
17361;SDS011;8798;51.938;4.348;2023-04-24T00:32:03;0.57;;;0.50;;
17361;SDS011;8798;51.938;4.348;2023-04-24T00:34:31;2.50;;;0.60;;
17361;SDS011;8798;51.938;4.348;2023-04-24T00:37:00;1.13;;;0.70;;
17361;SDS011;8798;51.938;4.348;2023-04-24T00:39:28;2.67;;;0.70;;
17361;SDS011;8798;51.938;4.348;2023-04-24T00:41:55;1.47;;;0.70;;
17361;SDS011;8798;51.938;4.348;2023-04-24T00:44:24;2.77;;;0.70;;
17361;SDS011;8798;51.938;4.348;2023-04-24T00:46:52;0.77;;;0.63;;
17361;SDS011;8798;51.938;4.348;2023-04-24T00:49:21;1.07;;;0.80;;
17361;SDS011;8798;51.938;4.348;2023-04-24T00:51:50;0.90;;;0.60;;
17361;SDS011;8798;51.938;4.348;2023-04-24T00:54:19;2.77;;;0.80;;
17361;SDS011;8798;51.938;4.348;2023-04-24T00:56:47;1.43;;;0.80;;
17361;SDS011;8798;51.938;4.348;2023-04-24T00:59:17;1.83;;;0.80;;
17361;SDS011;8798;51.938;4.348;2023-04-24T01:01:46;2.30;;;0.80;;
17361;SDS011;8798;51.938;4.348;2023-04-24T01:04:14;1.93;;;1.07;;
17361;SDS011;8798;51.938;4.348;2023-04-24T01:06:45;2.07;;;1.40;;
17361;SDS011;8798;51.938;4.348;2023-04-24T01:09:13;2.90;;;1.30;;
17361;SDS011;8798;51.938;4.348;2023-04-24T01:11:43;3.97;;;1.70;;
17361;SDS011;8798;51.938;4.348;2023-04-24T01:14:10;2.50;;;1.53;;
17361;SDS011;8798;51.938;4.348;2023-04-24T01:16:38;2.70;;;1.40;;
17361;SDS011;8798;51.938;4.348;2023-04-24T01:19:07;3.07;;;1.50;;
17361;SDS011;8798;51.938;4.348;2023-04-24T01:21:37;3.20;;;1.27;;
17361;SDS011;8798;51.938;4.348;2023-04-24T01:24:07;2.43;;;1.27;;
17361;SDS011;8798;51.938;4.348;2023-04-24T01:26:35;2.13;;;1.30;;
17361;SDS011;8798;51.938;4.348;2023-04-24T01:29:03;3.00;;;1.40;;
17361;SDS011;8798;51.938;4.348;2023-04-24T01:31:31;2.33;;;1.23;;
17361;SDS011;8798;51.938;4.348;2023-04-24T01:34:00;2.70;;;1.10;;
17361;SDS011;8798;51.938;4.348;2023-04-24T01:36:28;2.30;;;1.30;;
17361;SDS011;8798;51.938;4.348;2023-04-24T01:38:57;1.77;;;1.00;;
17361;SDS011;8798;51.938;4.348;2023-04-24T01:41:26;2.00;;;1.20;;
17361;SDS011;8798;51.938;4.348;2023-04-24T01:43:55;2.47;;;1.60;;
17361;SDS011;8798;51.938;4.348;2023-04-24T01:46:24;1.37;;;1.10;;
17361;SDS011;8798;51.938;4.348;2023-04-24T01:48:52;2.73;;;1.20;;
17361;SDS011;8798;51.938;4.348;2023-04-24T01:51:21;2.07;;;1.03;;
17361;SDS011;8798;51.938;4.348;2023-04-24T01:53:48;1.40;;;1.23;;
17361;SDS011;8798;51.938;4.348;2023-04-24T01:56:16;1.37;;;1.13;;
17361;SDS011;8798;51.938;4.348;2023-04-24T01:58:46;3.30;;;1.20;;
17361;SDS011;8798;51.938;4.348;2023-04-24T02:01:14;1.90;;;1.03;;
17361;SDS011;8798;51.938;4.348;2023-04-24T02:03:45;2.57;;;1.17;;
17361;SDS011;8798;51.938;4.348;2023-04-24T02:06:13;1.83;;;1.20;;
17361;SDS011;8798;51.938;4.348;2023-04-24T02:08:40;1.17;;;1.00;;
17361;SDS011;8798;51.938;4.348;2023-04-24T02:11:09;2.47;;;1.10;;
17361;SDS011;8798;51.938;4.348;2023-04-24T02:13:37;1.77;;;1.20;;
17361;SDS011;8798;51.938;4.348;2023-04-24T02:16:06;1.27;;;1.17;;
17361;SDS011;8798;51.938;4.348;2023-04-24T02:18:34;1.93;;;1.10;;
17361;SDS011;8798;51.938;4.348;2023-04-24T02:21:02;2.20;;;0.97;;
17361;SDS011;8798;51.938;4.348;2023-04-24T02:23:30;1.17;;;0.90;;
17361;SDS011;8798;51.938;4.348;2023-04-24T02:25:57;0.67;;;0.67;;
17361;SDS011;8798;51.938;4.348;2023-04-24T02:28:25;1.40;;;0.77;;
17361;SDS011;8798;51.938;4.348;2023-04-24T02:30:53;1.93;;;0.70;;
17361;SDS011;8798;51.938;4.348;2023-04-24T02:33:22;1.00;;;0.63;;
17361;SDS011;8798;51.938;4.348;2023-04-24T02:35:50;0.93;;;0.60;;
17361;SDS011;8798;51.938;4.348;2023-04-24T02:38:17;0.63;;;0.50;;
17361;SDS011;8798;51.938;4.348;2023-04-24T02:40:45;0.73;;;0.70;;
17361;SDS011;8798;51.938;4.348;2023-04-24T02:43:13;1.00;;;0.50;;
17361;SDS011;8798;51.938;4.348;2023-04-24T02:45:41;1.50;;;0.40;;
17361;SDS011;8798;51.938;4.348;2023-04-24T02:48:09;1.23;;;0.60;;
17361;SDS011;8798;51.938;4.348;2023-04-24T02:50:38;0.87;;;0.77;;
17361;SDS011;8798;51.938;4.348;2023-04-24T02:53:05;0.77;;;0.70;;
17361;SDS011;8798;51.938;4.348;2023-04-24T02:55:33;1.07;;;0.50;;
17361;SDS011;8798;51.938;4.348;2023-04-24T02:58:01;0.67;;;0.30;;
17361;SDS011;8798;51.938;4.348;2023-04-24T03:00:29;0.47;;;0.47;;
17361;SDS011;8798;51.938;4.348;2023-04-24T03:02:57;2.20;;;0.70;;
17361;SDS011;8798;51.938;4.348;2023-04-24T03:05:25;0.67;;;0.60;;
17361;SDS011;8798;51.938;4.348;2023-04-24T03:07:54;1.50;;;0.70;;
17361;SDS011;8798;51.938;4.348;2023-04-24T03:10:22;0.50;;;0.50;;
17361;SDS011;8798;51.938;4.348;2023-04-24T03:12:50;0.83;;;0.47;;
17361;SDS011;8798;51.938;4.348;2023-04-24T03:15:18;1.03;;;0.43;;
17361;SDS011;8798;51.938;4.348;2023-04-24T03:17:46;0.60;;;0.30;;
17361;SDS011;8798;51.938;4.348;2023-04-24T03:20:15;0.80;;;0.50;;
17361;SDS011;8798;51.938;4.348;2023-04-24T03:22:43;1.77;;;0.40;;
17361;SDS011;8798;51.938;4.348;2023-04-24T03:25:12;0.60;;;0.53;;
17361;SDS011;8798;51.938;4.348;2023-04-24T03:27:40;1.63;;;0.87;;
17361;SDS011;8798;51.938;4.348;2023-04-24T03:30:08;1.77;;;0.60;;
17361;SDS011;8798;51.938;4.348;2023-04-24T03:32:36;4.07;;;0.70;;
17361;SDS011;8798;51.938;4.348;2023-04-24T03:35:06;1.87;;;0.60;;
17361;SDS011;8798;51.938;4.348;2023-04-24T03:37:34;3.93;;;0.90;;
17361;SDS011;8798;51.938;4.348;2023-04-24T03:40:02;3.97;;;0.70;;
17361;SDS011;8798;51.938;4.348;2023-04-24T03:42:33;5.00;;;0.80;;
17361;SDS011;8798;51.938;4.348;2023-04-24T03:45:04;3.50;;;0.70;;
17361;SDS011;8798;51.938;4.348;2023-04-24T03:47:33;3.07;;;0.83;;
17361;SDS011;8798;51.938;4.348;2023-04-24T03:50:01;2.93;;;0.67;;
17361;SDS011;8798;51.938;4.348;2023-04-24T03:52:28;0.87;;;0.40;;
17361;SDS011;8798;51.938;4.348;2023-04-24T03:54:56;0.50;;;0.50;;
17361;SDS011;8798;51.938;4.348;2023-04-24T03:57:24;6.33;;;0.90;;
17361;SDS011;8798;51.938;4.348;2023-04-24T03:59:53;2.13;;;0.67;;
17361;SDS011;8798;51.938;4.348;2023-04-24T04:02:21;2.63;;;0.80;;
17361;SDS011;8798;51.938;4.348;2023-04-24T04:04:49;3.70;;;1.30;;
17361;SDS011;8798;51.938;4.348;2023-04-24T04:07:17;4.27;;;1.30;;
17361;SDS011;8798;51.938;4.348;2023-04-24T04:09:45;2.37;;;1.47;;
17361;SDS011;8798;51.938;4.348;2023-04-24T04:12:12;1.40;;;1.03;;
17361;SDS011;8798;51.938;4.348;2023-04-24T04:14:40;4.90;;;1.43;;
17361;SDS011;8798;51.938;4.348;2023-04-24T04:17:09;5.63;;;1.93;;
17361;SDS011;8798;51.938;4.348;2023-04-24T04:19:37;4.50;;;1.37;;
17361;SDS011;8798;51.938;4.348;2023-04-24T04:22:05;2.70;;;1.43;;
17361;SDS011;8798;51.938;4.348;2023-04-24T04:24:34;3.50;;;1.57;;
17361;SDS011;8798;51.938;4.348;2023-04-24T04:27:04;3.47;;;1.63;;
17361;SDS011;8798;51.938;4.348;2023-04-24T04:29:32;4.97;;;1.73;;
17361;SDS011;8798;51.938;4.348;2023-04-24T04:32:00;6.50;;;1.60;;
17361;SDS011;8798;51.938;4.348;2023-04-24T04:34:30;4.40;;;2.13;;
17361;SDS011;8798;51.938;4.348;2023-04-24T04:36:57;6.33;;;2.23;;
17361;SDS011;8798;51.938;4.348;2023-04-24T04:39:27;4.47;;;1.83;;
17361;SDS011;8798;51.938;4.348;2023-04-24T04:41:56;7.33;;;2.40;;
17361;SDS011;8798;51.938;4.348;2023-04-24T04:44:24;7.27;;;2.70;;
17361;SDS011;8798;51.938;4.348;2023-04-24T04:46:55;8.63;;;3.23;;
17361;SDS011;8798;51.938;4.348;2023-04-24T04:49:24;9.53;;;3.40;;
17361;SDS011;8798;51.938;4.348;2023-04-24T04:51:55;4.77;;;3.03;;
17361;SDS011;8798;51.938;4.348;2023-04-24T04:54:23;9.40;;;3.43;;
17361;SDS011;8798;51.938;4.348;2023-04-24T04:56:51;6.83;;;3.70;;
17361;SDS011;8798;51.938;4.348;2023-04-24T04:59:19;8.07;;;3.57;;
17361;SDS011;8798;51.938;4.348;2023-04-24T05:01:47;10.50;;;3.77;;
17361;SDS011;8798;51.938;4.348;2023-04-24T05:04:14;8.77;;;3.20;;
17361;SDS011;8798;51.938;4.348;2023-04-24T05:06:43;7.10;;;3.67;;
17361;SDS011;8798;51.938;4.348;2023-04-24T05:09:12;11.37;;;4.07;;
17361;SDS011;8798;51.938;4.348;2023-04-24T05:11:40;11.80;;;4.20;;
17361;SDS011;8798;51.938;4.348;2023-04-24T05:14:07;7.83;;;3.90;;
17361;SDS011;8798;51.938;4.348;2023-04-24T05:16:35;10.20;;;4.17;;
17361;SDS011;8798;51.938;4.348;2023-04-24T05:19:04;7.13;;;3.43;;
17361;SDS011;8798;51.938;4.348;2023-04-24T05:21:32;9.37;;;4.40;;
17361;SDS011;8798;51.938;4.348;2023-04-24T05:24:00;14.07;;;4.90;;
17361;SDS011;8798;51.938;4.348;2023-04-24T05:26:29;14.00;;;4.83;;
17361;SDS011;8798;51.938;4.348;2023-04-24T05:28:57;10.53;;;3.50;;
17361;SDS011;8798;51.938;4.348;2023-04-24T05:31:24;12.03;;;4.73;;
17361;SDS011;8798;51.938;4.348;2023-04-24T05:33:52;9.10;;;4.97;;
17361;SDS011;8798;51.938;4.348;2023-04-24T05:36:20;12.60;;;5.50;;
17361;SDS011;8798;51.938;4.348;2023-04-24T05:38:48;8.60;;;5.17;;
17361;SDS011;8798;51.938;4.348;2023-04-24T05:41:16;13.33;;;5.57;;
17361;SDS011;8798;51.938;4.348;2023-04-24T05:43:45;10.70;;;4.83;;
17361;SDS011;8798;51.938;4.348;2023-04-24T05:46:12;11.23;;;4.07;;
17361;SDS011;8798;51.938;4.348;2023-04-24T05:48:40;6.40;;;3.57;;
17361;SDS011;8798;51.938;4.348;2023-04-24T05:51:08;17.63;;;5.10;;
17361;SDS011;8798;51.938;4.348;2023-04-24T05:53:38;11.70;;;3.23;;
17361;SDS011;8798;51.938;4.348;2023-04-24T05:56:06;12.07;;;2.77;;
17361;SDS011;8798;51.938;4.348;2023-04-24T05:58:33;10.70;;;3.10;;
17361;SDS011;8798;51.938;4.348;2023-04-24T06:01:02;13.33;;;3.53;;
17361;SDS011;8798;51.938;4.348;2023-04-24T06:03:31;11.23;;;3.50;;
17361;SDS011;8798;51.938;4.348;2023-04-24T06:05:59;5.67;;;2.17;;
17361;SDS011;8798;51.938;4.348;2023-04-24T06:08:27;9.57;;;2.97;;
17361;SDS011;8798;51.938;4.348;2023-04-24T06:10:54;13.60;;;2.60;;
17361;SDS011;8798;51.938;4.348;2023-04-24T06:13:22;10.00;;;2.80;;
17361;SDS011;8798;51.938;4.348;2023-04-24T06:15:50;9.60;;;2.67;;
17361;SDS011;8798;51.938;4.348;2023-04-24T06:18:19;12.07;;;3.47;;
17361;SDS011;8798;51.938;4.348;2023-04-24T06:20:47;9.50;;;2.87;;
17361;SDS011;8798;51.938;4.348;2023-04-24T06:23:15;6.20;;;2.47;;
17361;SDS011;8798;51.938;4.348;2023-04-24T06:25:43;10.10;;;2.37;;
17361;SDS011;8798;51.938;4.348;2023-04-24T06:28:11;11.13;;;2.97;;
17361;SDS011;8798;51.938;4.348;2023-04-24T06:30:39;11.37;;;2.70;;
17361;SDS011;8798;51.938;4.348;2023-04-24T06:33:07;16.67;;;2.77;;
17361;SDS011;8798;51.938;4.348;2023-04-24T06:35:47;9.60;;;1.57;;
17361;SDS011;8798;51.938;4.348;2023-04-24T06:38:15;15.27;;;3.40;;
17361;SDS011;8798;51.938;4.348;2023-04-24T06:40:43;13.80;;;2.20;;
17361;SDS011;8798;51.938;4.348;2023-04-24T06:43:11;10.57;;;2.70;;
17361;SDS011;8798;51.938;4.348;2023-04-24T06:45:39;12.13;;;3.00;;
17361;SDS011;8798;51.938;4.348;2023-04-24T06:48:07;9.00;;;2.23;;
17361;SDS011;8798;51.938;4.348;2023-04-24T06:50:35;9.37;;;2.70;;
17361;SDS011;8798;51.938;4.348;2023-04-24T06:53:04;9.77;;;2.60;;
17361;SDS011;8798;51.938;4.348;2023-04-24T06:55:32;9.50;;;2.57;;
17361;SDS011;8798;51.938;4.348;2023-04-24T06:57:59;14.47;;;2.60;;
17361;SDS011;8798;51.938;4.348;2023-04-24T07:00:27;11.73;;;2.37;;
17361;SDS011;8798;51.938;4.348;2023-04-24T07:02:56;7.73;;;1.93;;
17361;SDS011;8798;51.938;4.348;2023-04-24T07:05:24;7.67;;;1.60;;
17361;SDS011;8798;51.938;4.348;2023-04-24T07:07:52;18.67;;;2.60;;
17361;SDS011;8798;51.938;4.348;2023-04-24T07:10:21;7.10;;;2.13;;
17361;SDS011;8798;51.938;4.348;2023-04-24T07:12:49;6.27;;;1.60;;
17361;SDS011;8798;51.938;4.348;2023-04-24T07:15:17;4.97;;;1.70;;
17361;SDS011;8798;51.938;4.348;2023-04-24T07:17:46;10.03;;;1.97;;
17361;SDS011;8798;51.938;4.348;2023-04-24T07:20:14;7.63;;;1.20;;
17361;SDS011;8798;51.938;4.348;2023-04-24T07:22:42;5.73;;;1.80;;
17361;SDS011;8798;51.938;4.348;2023-04-24T07:25:10;6.93;;;1.73;;
17361;SDS011;8798;51.938;4.348;2023-04-24T07:27:39;9.13;;;1.97;;
17361;SDS011;8798;51.938;4.348;2023-04-24T07:30:07;10.43;;;1.80;;
17361;SDS011;8798;51.938;4.348;2023-04-24T07:32:35;10.53;;;2.00;;
17361;SDS011;8798;51.938;4.348;2023-04-24T07:35:03;8.13;;;2.00;;
17361;SDS011;8798;51.938;4.348;2023-04-24T07:37:32;10.93;;;1.70;;
17361;SDS011;8798;51.938;4.348;2023-04-24T07:39:59;5.80;;;1.77;;
17361;SDS011;8798;51.938;4.348;2023-04-24T07:42:27;6.73;;;1.90;;
17361;SDS011;8798;51.938;4.348;2023-04-24T07:44:58;8.27;;;1.83;;
17361;SDS011;8798;51.938;4.348;2023-04-24T07:47:25;8.83;;;1.90;;
17361;SDS011;8798;51.938;4.348;2023-04-24T07:49:53;6.97;;;1.40;;
17361;SDS011;8798;51.938;4.348;2023-04-24T07:52:21;6.37;;;1.73;;
17361;SDS011;8798;51.938;4.348;2023-04-24T07:54:49;7.93;;;1.90;;
17361;SDS011;8798;51.938;4.348;2023-04-24T07:57:19;9.33;;;1.87;;
17361;SDS011;8798;51.938;4.348;2023-04-24T07:59:46;11.30;;;1.73;;
17361;SDS011;8798;51.938;4.348;2023-04-24T08:02:16;12.87;;;2.00;;
17361;SDS011;8798;51.938;4.348;2023-04-24T08:04:44;7.07;;;2.07;;
17361;SDS011;8798;51.938;4.348;2023-04-24T08:07:12;4.93;;;1.40;;
17361;SDS011;8798;51.938;4.348;2023-04-24T08:09:40;6.87;;;1.23;;
17361;SDS011;8798;51.938;4.348;2023-04-24T08:12:08;7.03;;;2.00;;
17361;SDS011;8798;51.938;4.348;2023-04-24T08:14:36;4.27;;;1.53;;
17361;SDS011;8798;51.938;4.348;2023-04-24T08:17:04;5.13;;;1.30;;
17361;SDS011;8798;51.938;4.348;2023-04-24T08:19:33;6.57;;;1.17;;
17361;SDS011;8798;51.938;4.348;2023-04-24T08:22:01;2.27;;;0.97;;
17361;SDS011;8798;51.938;4.348;2023-04-24T08:24:30;2.93;;;1.23;;
17361;SDS011;8798;51.938;4.348;2023-04-24T08:26:58;7.23;;;1.70;;
17361;SDS011;8798;51.938;4.348;2023-04-24T08:29:26;2.30;;;0.90;;
17361;SDS011;8798;51.938;4.348;2023-04-24T08:31:54;3.77;;;1.13;;
17361;SDS011;8798;51.938;4.348;2023-04-24T08:34:22;5.67;;;1.07;;
17361;SDS011;8798;51.938;4.348;2023-04-24T08:36:51;3.73;;;1.00;;
17361;SDS011;8798;51.938;4.348;2023-04-24T08:39:19;4.53;;;0.77;;
17361;SDS011;8798;51.938;4.348;2023-04-24T08:41:47;3.70;;;0.97;;
17361;SDS011;8798;51.938;4.348;2023-04-24T08:44:15;4.50;;;1.10;;
17361;SDS011;8798;51.938;4.348;2023-04-24T08:46:44;3.50;;;1.20;;
17361;SDS011;8798;51.938;4.348;2023-04-24T08:49:15;3.67;;;1.10;;
17361;SDS011;8798;51.938;4.348;2023-04-24T08:51:43;2.60;;;0.80;;
17361;SDS011;8798;51.938;4.348;2023-04-24T08:54:14;3.13;;;0.63;;
17361;SDS011;8798;51.938;4.348;2023-04-24T08:56:42;3.27;;;1.00;;
17361;SDS011;8798;51.938;4.348;2023-04-24T08:59:11;5.17;;;0.80;;
17361;SDS011;8798;51.938;4.348;2023-04-24T09:01:40;2.20;;;0.73;;
17361;SDS011;8798;51.938;4.348;2023-04-24T09:04:09;1.93;;;0.70;;
17361;SDS011;8798;51.938;4.348;2023-04-24T09:06:39;5.37;;;0.80;;
17361;SDS011;8798;51.938;4.348;2023-04-24T09:09:07;2.57;;;0.50;;
17361;SDS011;8798;51.938;4.348;2023-04-24T09:11:39;2.10;;;0.63;;
17361;SDS011;8798;51.938;4.348;2023-04-24T09:14:07;1.30;;;0.53;;
17361;SDS011;8798;51.938;4.348;2023-04-24T09:16:36;3.63;;;0.60;;
17361;SDS011;8798;51.938;4.348;2023-04-24T09:19:05;1.43;;;0.37;;
17361;SDS011;8798;51.938;4.348;2023-04-24T09:21:33;1.93;;;0.90;;
17361;SDS011;8798;51.938;4.348;2023-04-24T09:24:03;1.63;;;0.47;;
17361;SDS011;8798;51.938;4.348;2023-04-24T09:26:34;3.60;;;0.80;;
17361;SDS011;8798;51.938;4.348;2023-04-24T09:29:04;3.40;;;0.80;;
17361;SDS011;8798;51.938;4.348;2023-04-24T09:31:32;4.50;;;0.70;;
17361;SDS011;8798;51.938;4.348;2023-04-24T09:34:00;1.13;;;0.60;;
17361;SDS011;8798;51.938;4.348;2023-04-24T09:36:34;2.10;;;0.50;;
17361;SDS011;8798;51.938;4.348;2023-04-24T09:39:04;2.80;;;0.70;;
17361;SDS011;8798;51.938;4.348;2023-04-24T09:41:34;2.13;;;0.60;;
17361;SDS011;8798;51.938;4.348;2023-04-24T09:44:12;1.07;;;0.50;;
17361;SDS011;8798;51.938;4.348;2023-04-24T09:46:41;2.90;;;0.70;;
17361;SDS011;8798;51.938;4.348;2023-04-24T09:49:10;2.30;;;0.63;;
17361;SDS011;8798;51.938;4.348;2023-04-24T09:51:42;2.27;;;0.70;;
17361;SDS011;8798;51.938;4.348;2023-04-24T09:54:14;0.50;;;0.30;;
17361;SDS011;8798;51.938;4.348;2023-04-24T09:56:47;3.27;;;0.80;;
17361;SDS011;8798;51.938;4.348;2023-04-24T09:59:18;2.00;;;0.50;;
17361;SDS011;8798;51.938;4.348;2023-04-24T10:01:47;4.60;;;0.70;;
17361;SDS011;8798;51.938;4.348;2023-04-24T10:04:16;3.33;;;0.77;;
17361;SDS011;8798;51.938;4.348;2023-04-24T10:06:46;4.53;;;1.13;;
17361;SDS011;8798;51.938;4.348;2023-04-24T10:09:15;4.77;;;1.10;;
17361;SDS011;8798;51.938;4.348;2023-04-24T10:11:44;4.37;;;0.90;;
17361;SDS011;8798;51.938;4.348;2023-04-24T10:14:13;2.67;;;0.70;;
17361;SDS011;8798;51.938;4.348;2023-04-24T10:16:44;4.53;;;0.80;;
17361;SDS011;8798;51.938;4.348;2023-04-24T10:19:13;1.87;;;0.70;;
17361;SDS011;8798;51.938;4.348;2023-04-24T10:21:42;2.43;;;0.57;;
17361;SDS011;8798;51.938;4.348;2023-04-24T10:24:13;3.37;;;0.77;;
17361;SDS011;8798;51.938;4.348;2023-04-24T10:26:42;9.03;;;0.90;;
17361;SDS011;8798;51.938;4.348;2023-04-24T10:29:11;5.43;;;0.90;;
17361;SDS011;8798;51.938;4.348;2023-04-24T10:31:39;5.80;;;1.20;;
17361;SDS011;8798;51.938;4.348;2023-04-24T10:34:09;7.43;;;1.10;;
17361;SDS011;8798;51.938;4.348;2023-04-24T10:36:38;3.77;;;0.90;;
17361;SDS011;8798;51.938;4.348;2023-04-24T10:39:09;5.30;;;0.90;;
17361;SDS011;8798;51.938;4.348;2023-04-24T10:41:41;4.37;;;1.10;;
17361;SDS011;8798;51.938;4.348;2023-04-24T10:44:09;3.27;;;0.63;;
17361;SDS011;8798;51.938;4.348;2023-04-24T10:46:38;2.73;;;0.47;;
17361;SDS011;8798;51.938;4.348;2023-04-24T10:49:11;3.13;;;0.63;;
17361;SDS011;8798;51.938;4.348;2023-04-24T10:51:48;3.37;;;0.67;;
17361;SDS011;8798;51.938;4.348;2023-04-24T10:54:22;1.33;;;0.50;;
17361;SDS011;8798;51.938;4.348;2023-04-24T10:57:25;5.43;;;0.70;;
17361;SDS011;8798;51.938;4.348;2023-04-24T11:00:10;1.90;;;0.57;;
17361;SDS011;8798;51.938;4.348;2023-04-24T11:02:41;4.93;;;0.90;;
17361;SDS011;8798;51.938;4.348;2023-04-24T11:05:16;3.27;;;0.70;;
17361;SDS011;8798;51.938;4.348;2023-04-24T11:10:38;3.57;;;0.60;;
17361;SDS011;8798;51.938;4.348;2023-04-24T11:13:07;2.83;;;0.73;;
17361;SDS011;8798;51.938;4.348;2023-04-24T11:15:37;1.83;;;0.50;;
17361;SDS011;8798;51.938;4.348;2023-04-24T11:18:12;3.43;;;0.50;;
17361;SDS011;8798;51.938;4.348;2023-04-24T11:20:43;2.60;;;0.60;;
17361;SDS011;8798;51.938;4.348;2023-04-24T11:23:12;1.30;;;0.60;;
17361;SDS011;8798;51.938;4.348;2023-04-24T11:25:40;2.03;;;0.50;;
17361;SDS011;8798;51.938;4.348;2023-04-24T11:28:09;3.73;;;0.70;;
17361;SDS011;8798;51.938;4.348;2023-04-24T11:30:42;1.87;;;0.67;;
17361;SDS011;8798;51.938;4.348;2023-04-24T11:33:10;3.00;;;0.60;;
17361;SDS011;8798;51.938;4.348;2023-04-24T11:35:39;3.87;;;0.70;;
17361;SDS011;8798;51.938;4.348;2023-04-24T11:38:09;2.33;;;0.70;;
17361;SDS011;8798;51.938;4.348;2023-04-24T11:40:50;7.40;;;0.80;;
17361;SDS011;8798;51.938;4.348;2023-04-24T11:43:19;4.87;;;1.00;;
17361;SDS011;8798;51.938;4.348;2023-04-24T11:45:48;4.23;;;0.87;;
17361;SDS011;8798;51.938;4.348;2023-04-24T11:48:18;5.60;;;0.90;;
17361;SDS011;8798;51.938;4.348;2023-04-24T11:50:50;2.37;;;0.70;;
17361;SDS011;8798;51.938;4.348;2023-04-24T11:53:19;3.83;;;1.30;;
17361;SDS011;8798;51.938;4.348;2023-04-24T11:55:48;4.43;;;0.97;;
17361;SDS011;8798;51.938;4.348;2023-04-24T11:58:16;2.63;;;0.63;;
17361;SDS011;8798;51.938;4.348;2023-04-24T12:00:54;4.70;;;1.17;;
17361;SDS011;8798;51.938;4.348;2023-04-24T12:03:23;4.73;;;1.30;;
17361;SDS011;8798;51.938;4.348;2023-04-24T12:05:51;4.40;;;1.40;;
17361;SDS011;8798;51.938;4.348;2023-04-24T12:08:28;5.90;;;1.20;;
17361;SDS011;8798;51.938;4.348;2023-04-24T12:10:56;5.57;;;1.20;;
17361;SDS011;8798;51.938;4.348;2023-04-24T12:13:25;7.50;;;1.20;;
17361;SDS011;8798;51.938;4.348;2023-04-24T12:15:53;7.87;;;1.27;;
17361;SDS011;8798;51.938;4.348;2023-04-24T12:18:22;3.23;;;1.00;;
17361;SDS011;8798;51.938;4.348;2023-04-24T12:20:50;2.67;;;1.07;;
17361;SDS011;8798;51.938;4.348;2023-04-24T12:26:11;5.87;;;1.20;;
17361;SDS011;8798;51.938;4.348;2023-04-24T12:28:39;4.83;;;1.47;;
17361;SDS011;8798;51.938;4.348;2023-04-24T12:31:07;5.70;;;1.50;;
17361;SDS011;8798;51.938;4.348;2023-04-24T12:33:35;7.93;;;2.00;;
17361;SDS011;8798;51.938;4.348;2023-04-24T12:36:04;6.23;;;1.77;;
17361;SDS011;8798;51.938;4.348;2023-04-24T12:38:32;7.33;;;1.50;;
17361;SDS011;8798;51.938;4.348;2023-04-24T12:41:06;6.07;;;1.50;;
17361;SDS011;8798;51.938;4.348;2023-04-24T12:43:37;5.80;;;1.23;;
17361;SDS011;8798;51.938;4.348;2023-04-24T12:46:05;2.53;;;0.90;;
17361;SDS011;8798;51.938;4.348;2023-04-24T12:48:33;5.47;;;1.30;;
17361;SDS011;8798;51.938;4.348;2023-04-24T12:51:01;4.57;;;1.70;;
17361;SDS011;8798;51.938;4.348;2023-04-24T12:53:28;4.83;;;1.50;;
17361;SDS011;8798;51.938;4.348;2023-04-24T12:55:57;8.63;;;1.63;;
17361;SDS011;8798;51.938;4.348;2023-04-24T12:58:25;10.97;;;1.93;;
17361;SDS011;8798;51.938;4.348;2023-04-24T13:00:54;8.30;;;1.60;;
17361;SDS011;8798;51.938;4.348;2023-04-24T13:03:22;8.80;;;1.67;;
17361;SDS011;8798;51.938;4.348;2023-04-24T13:05:50;3.73;;;1.53;;
17361;SDS011;8798;51.938;4.348;2023-04-24T13:08:18;5.67;;;1.57;;
17361;SDS011;8798;51.938;4.348;2023-04-24T13:10:46;10.67;;;2.07;;
17361;SDS011;8798;51.938;4.348;2023-04-24T13:13:14;8.87;;;1.63;;
17361;SDS011;8798;51.938;4.348;2023-04-24T13:15:42;3.77;;;0.90;;
17361;SDS011;8798;51.938;4.348;2023-04-24T13:18:11;7.83;;;2.13;;
17361;SDS011;8798;51.938;4.348;2023-04-24T13:20:39;2.33;;;0.93;;
17361;SDS011;8798;51.938;4.348;2023-04-24T13:23:07;5.03;;;1.70;;
17361;SDS011;8798;51.938;4.348;2023-04-24T13:25:36;8.07;;;1.80;;
17361;SDS011;8798;51.938;4.348;2023-04-24T13:28:05;8.10;;;2.23;;
17361;SDS011;8798;51.938;4.348;2023-04-24T13:30:33;5.63;;;1.70;;
17361;SDS011;8798;51.938;4.348;2023-04-24T13:33:01;7.50;;;1.70;;
17361;SDS011;8798;51.938;4.348;2023-04-24T13:35:30;6.37;;;1.90;;
17361;SDS011;8798;51.938;4.348;2023-04-24T13:37:58;9.73;;;2.20;;
17361;SDS011;8798;51.938;4.348;2023-04-24T13:40:27;8.83;;;2.67;;
17361;SDS011;8798;51.938;4.348;2023-04-24T13:42:55;8.23;;;1.83;;
17361;SDS011;8798;51.938;4.348;2023-04-24T13:45:23;9.43;;;1.83;;
17361;SDS011;8798;51.938;4.348;2023-04-24T13:47:51;3.27;;;1.53;;
17361;SDS011;8798;51.938;4.348;2023-04-24T13:50:20;7.37;;;1.70;;
17361;SDS011;8798;51.938;4.348;2023-04-24T13:52:49;7.77;;;1.63;;
17361;SDS011;8798;51.938;4.348;2023-04-24T13:55:17;3.80;;;1.37;;
17361;SDS011;8798;51.938;4.348;2023-04-24T13:57:45;5.27;;;1.73;;
17361;SDS011;8798;51.938;4.348;2023-04-24T14:00:13;5.13;;;1.50;;
17361;SDS011;8798;51.938;4.348;2023-04-24T14:02:41;9.20;;;1.83;;
17361;SDS011;8798;51.938;4.348;2023-04-24T14:05:09;5.63;;;2.00;;
17361;SDS011;8798;51.938;4.348;2023-04-24T14:07:38;7.07;;;1.80;;
17361;SDS011;8798;51.938;4.348;2023-04-24T14:10:07;8.93;;;2.40;;
17361;SDS011;8798;51.938;4.348;2023-04-24T14:12:36;8.37;;;2.00;;
17361;SDS011;8798;51.938;4.348;2023-04-24T14:15:04;7.37;;;1.90;;
17361;SDS011;8798;51.938;4.348;2023-04-24T14:17:33;10.23;;;2.10;;
17361;SDS011;8798;51.938;4.348;2023-04-24T14:20:01;13.80;;;2.83;;
17361;SDS011;8798;51.938;4.348;2023-04-24T14:22:29;7.70;;;1.90;;
17361;SDS011;8798;51.938;4.348;2023-04-24T14:24:57;6.60;;;2.13;;
17361;SDS011;8798;51.938;4.348;2023-04-24T14:27:26;6.33;;;1.80;;
17361;SDS011;8798;51.938;4.348;2023-04-24T14:29:54;11.10;;;2.40;;
17361;SDS011;8798;51.938;4.348;2023-04-24T14:32:22;6.37;;;1.30;;
17361;SDS011;8798;51.938;4.348;2023-04-24T14:34:50;9.13;;;1.70;;
17361;SDS011;8798;51.938;4.348;2023-04-24T14:37:17;8.23;;;1.57;;
17361;SDS011;8798;51.938;4.348;2023-04-24T14:39:46;8.97;;;1.87;;
17361;SDS011;8798;51.938;4.348;2023-04-24T14:42:27;11.60;;;1.90;;
17361;SDS011;8798;51.938;4.348;2023-04-24T14:44:55;7.93;;;1.90;;
17361;SDS011;8798;51.938;4.348;2023-04-24T14:47:23;5.07;;;1.40;;
17361;SDS011;8798;51.938;4.348;2023-04-24T14:49:51;9.67;;;1.67;;
17361;SDS011;8798;51.938;4.348;2023-04-24T14:52:19;7.57;;;1.80;;
17361;SDS011;8798;51.938;4.348;2023-04-24T14:54:47;4.73;;;1.83;;
17361;SDS011;8798;51.938;4.348;2023-04-24T14:57:14;7.87;;;1.87;;
17361;SDS011;8798;51.938;4.348;2023-04-24T14:59:44;7.77;;;1.70;;
17361;SDS011;8798;51.938;4.348;2023-04-24T15:02:11;6.83;;;1.27;;
17361;SDS011;8798;51.938;4.348;2023-04-24T15:04:42;8.93;;;2.10;;
17361;SDS011;8798;51.938;4.348;2023-04-24T15:07:10;9.20;;;2.30;;
17361;SDS011;8798;51.938;4.348;2023-04-24T15:09:38;7.43;;;1.73;;
17361;SDS011;8798;51.938;4.348;2023-04-24T15:12:06;6.37;;;1.87;;
17361;SDS011;8798;51.938;4.348;2023-04-24T15:14:34;11.27;;;2.30;;
17361;SDS011;8798;51.938;4.348;2023-04-24T15:17:03;7.13;;;2.40;;